sensor_id;sensor_type;location;lat;lon;timestamp;temperature;humidity
70534;SHT31;58088;51.186;17.130;2022-09-09T00:01:08;18.02;78.19
70534;SHT31;58088;51.186;17.130;2022-09-09T00:09:49;17.85;77.91
70534;SHT31;58088;51.186;17.130;2022-09-09T00:15:42;17.68;78.04
70534;SHT31;58088;51.186;17.130;2022-09-09T00:21:38;17.64;77.80
70534;SHT31;58088;51.186;17.130;2022-09-09T00:27:19;17.57;77.66
70534;SHT31;58088;51.186;17.130;2022-09-09T00:32:40;17.42;77.81
70534;SHT31;58088;51.186;17.130;2022-09-09T00:37:35;17.34;77.73
70534;SHT31;58088;51.186;17.130;2022-09-09T00:40:07;17.32;77.74
70534;SHT31;58088;51.186;17.130;2022-09-09T00:42:48;17.29;77.89
70534;SHT31;58088;51.186;17.130;2022-09-09T00:48:33;17.15;77.89
70534;SHT31;58088;51.186;17.130;2022-09-09T00:51:23;17.08;77.88
70534;SHT31;58088;51.186;17.130;2022-09-09T00:57:11;16.97;78.08
70534;SHT31;58088;51.186;17.130;2022-09-09T01:00:35;16.95;78.05
70534;SHT31;58088;51.186;17.130;2022-09-09T01:03:29;16.91;77.98
70534;SHT31;58088;51.186;17.130;2022-09-09T01:06:26;16.87;78.11
70534;SHT31;58088;51.186;17.130;2022-09-09T01:09:16;16.85;78.01
70534;SHT31;58088;51.186;17.130;2022-09-09T01:11:55;16.78;77.99
70534;SHT31;58088;51.186;17.130;2022-09-09T01:17:13;16.70;78.10
70534;SHT31;58088;51.186;17.130;2022-09-09T01:20:14;16.70;78.00
70534;SHT31;58088;51.186;17.130;2022-09-09T01:26:24;16.59;78.28
70534;SHT31;58088;51.186;17.130;2022-09-09T01:29:24;16.58;78.27
70534;SHT31;58088;51.186;17.130;2022-09-09T01:34:49;16.55;78.11
70534;SHT31;58088;51.186;17.130;2022-09-09T01:37:17;16.52;78.21
70534;SHT31;58088;51.186;17.130;2022-09-09T01:39:44;16.48;78.36
70534;SHT31;58088;51.186;17.130;2022-09-09T01:42:13;16.46;78.38
70534;SHT31;58088;51.186;17.130;2022-09-09T01:44:42;16.45;78.32
70534;SHT31;58088;51.186;17.130;2022-09-09T01:47:08;16.45;78.14
70534;SHT31;58088;51.186;17.130;2022-09-09T01:49:49;16.43;77.98
70534;SHT31;58088;51.186;17.130;2022-09-09T01:52:20;16.43;77.82
70534;SHT31;58088;51.186;17.130;2022-09-09T01:54:47;16.43;77.70
70534;SHT31;58088;51.186;17.130;2022-09-09T01:57:27;16.37;77.79
70534;SHT31;58088;51.186;17.130;2022-09-09T02:00:07;16.34;77.74
70534;SHT31;58088;51.186;17.130;2022-09-09T02:02:55;16.31;77.74
70534;SHT31;58088;51.186;17.130;2022-09-09T02:05:40;16.25;77.88
70534;SHT31;58088;51.186;17.130;2022-09-09T02:08:26;16.23;77.83
70534;SHT31;58088;51.186;17.130;2022-09-09T02:11:19;16.20;77.78
70534;SHT31;58088;51.186;17.130;2022-09-09T02:14:03;16.15;77.67
70534;SHT31;58088;51.186;17.130;2022-09-09T02:16:52;16.13;77.60
70534;SHT31;58088;51.186;17.130;2022-09-09T02:19:56;16.12;77.70
70534;SHT31;58088;51.186;17.130;2022-09-09T02:22:42;16.11;78.07
70534;SHT31;58088;51.186;17.130;2022-09-09T02:25:13;16.11;78.13
70534;SHT31;58088;51.186;17.130;2022-09-09T02:27:44;16.12;78.16
70534;SHT31;58088;51.186;17.130;2022-09-09T02:30:13;16.08;78.21
70534;SHT31;58088;51.186;17.130;2022-09-09T02:32:46;16.00;78.50
70534;SHT31;58088;51.186;17.130;2022-09-09T02:35:17;15.92;78.70
70534;SHT31;58088;51.186;17.130;2022-09-09T02:37:50;15.86;78.85
70534;SHT31;58088;51.186;17.130;2022-09-09T02:40:22;15.83;79.05
70534;SHT31;58088;51.186;17.130;2022-09-09T02:42:54;15.82;79.19
70534;SHT31;58088;51.186;17.130;2022-09-09T02:45:23;15.85;79.17
70534;SHT31;58088;51.186;17.130;2022-09-09T02:51:15;15.78;79.43
70534;SHT31;58088;51.186;17.130;2022-09-09T02:56:43;15.76;79.53
70534;SHT31;58088;51.186;17.130;2022-09-09T02:59:21;15.75;79.58
70534;SHT31;58088;51.186;17.130;2022-09-09T03:01:51;15.76;79.61
70534;SHT31;58088;51.186;17.130;2022-09-09T03:04:19;15.73;79.66
70534;SHT31;58088;51.186;17.130;2022-09-09T03:06:46;15.73;79.69
70534;SHT31;58088;51.186;17.130;2022-09-09T03:09:16;15.67;79.60
70534;SHT31;58088;51.186;17.130;2022-09-09T03:11:43;15.65;79.61
70534;SHT31;58088;51.186;17.130;2022-09-09T03:14:09;15.64;79.73
70534;SHT31;58088;51.186;17.130;2022-09-09T03:16:37;15.65;79.79
70534;SHT31;58088;51.186;17.130;2022-09-09T03:19:03;15.67;79.77
70534;SHT31;58088;51.186;17.130;2022-09-09T03:21:29;15.69;79.48
70534;SHT31;58088;51.186;17.130;2022-09-09T03:23:56;15.67;79.29
70534;SHT31;58088;51.186;17.130;2022-09-09T03:26:22;15.65;79.13
70534;SHT31;58088;51.186;17.130;2022-09-09T03:28:49;15.61;79.10
70534;SHT31;58088;51.186;17.130;2022-09-09T03:31:18;15.59;79.05
70534;SHT31;58088;51.186;17.130;2022-09-09T03:33:45;15.54;79.00
70534;SHT31;58088;51.186;17.130;2022-09-09T03:36:13;15.47;79.08
70534;SHT31;58088;51.186;17.130;2022-09-09T03:38:41;15.47;79.19
70534;SHT31;58088;51.186;17.130;2022-09-09T03:41:07;15.47;79.10
70534;SHT31;58088;51.186;17.130;2022-09-09T03:43:34;15.47;79.07
70534;SHT31;58088;51.186;17.130;2022-09-09T03:46:00;15.48;78.93
70534;SHT31;58088;51.186;17.130;2022-09-09T03:48:28;15.49;78.71
70534;SHT31;58088;51.186;17.130;2022-09-09T03:50:54;15.50;78.55
70534;SHT31;58088;51.186;17.130;2022-09-09T03:53:23;15.48;78.48
70534;SHT31;58088;51.186;17.130;2022-09-09T03:55:52;15.49;78.34
70534;SHT31;58088;51.186;17.130;2022-09-09T03:58:22;15.47;78.29
70534;SHT31;58088;51.186;17.130;2022-09-09T04:00:53;15.44;78.39
70534;SHT31;58088;51.186;17.130;2022-09-09T04:03:23;15.48;78.32
70534;SHT31;58088;51.186;17.130;2022-09-09T04:05:51;15.46;78.28
70534;SHT31;58088;51.186;17.130;2022-09-09T04:08:19;15.50;78.18
70534;SHT31;58088;51.186;17.130;2022-09-09T04:10:47;15.50;77.94
70534;SHT31;58088;51.186;17.130;2022-09-09T04:13:16;15.51;77.97
70534;SHT31;58088;51.186;17.130;2022-09-09T04:15:44;15.52;78.00
70534;SHT31;58088;51.186;17.130;2022-09-09T04:18:21;15.55;77.92
70534;SHT31;58088;51.186;17.130;2022-09-09T04:20:49;15.57;77.86
70534;SHT31;58088;51.186;17.130;2022-09-09T04:23:22;15.54;77.79
70534;SHT31;58088;51.186;17.130;2022-09-09T04:25:51;15.48;78.03
70534;SHT31;58088;51.186;17.130;2022-09-09T04:28:21;15.49;78.27
70534;SHT31;58088;51.186;17.130;2022-09-09T04:30:52;15.48;78.21
70534;SHT31;58088;51.186;17.130;2022-09-09T04:33:18;15.52;78.11
70534;SHT31;58088;51.186;17.130;2022-09-09T04:35:46;15.52;78.19
70534;SHT31;58088;51.186;17.130;2022-09-09T04:38:18;15.48;78.29
70534;SHT31;58088;51.186;17.130;2022-09-09T04:40:49;15.43;78.46
70534;SHT31;58088;51.186;17.130;2022-09-09T04:43:17;15.41;78.58
70534;SHT31;58088;51.186;17.130;2022-09-09T04:45:48;15.40;78.78
70534;SHT31;58088;51.186;17.130;2022-09-09T04:48:21;15.49;78.80
70534;SHT31;58088;51.186;17.130;2022-09-09T04:50:56;15.60;78.67
70534;SHT31;58088;51.186;17.130;2022-09-09T04:53:35;15.73;78.42
70534;SHT31;58088;51.186;17.130;2022-09-09T04:58:52;16.12;78.18
70534;SHT31;58088;51.186;17.130;2022-09-09T05:01:21;16.45;78.15
70534;SHT31;58088;51.186;17.130;2022-09-09T05:03:50;16.94;77.68
70534;SHT31;58088;51.186;17.130;2022-09-09T05:06:21;17.46;77.05
70534;SHT31;58088;51.186;17.130;2022-09-09T05:08:50;17.98;76.33
70534;SHT31;58088;51.186;17.130;2022-09-09T05:11:20;18.37;75.41
70534;SHT31;58088;51.186;17.130;2022-09-09T05:13:51;18.60;74.81
70534;SHT31;58088;51.186;17.130;2022-09-09T05:16:19;18.91;74.32
70534;SHT31;58088;51.186;17.130;2022-09-09T05:18:46;19.40;73.71
70534;SHT31;58088;51.186;17.130;2022-09-09T05:21:14;19.89;72.75
70534;SHT31;58088;51.186;17.130;2022-09-09T05:23:42;20.34;71.73
70534;SHT31;58088;51.186;17.130;2022-09-09T05:26:13;20.86;70.46
70534;SHT31;58088;51.186;17.130;2022-09-09T05:28:45;21.34;69.20
70534;SHT31;58088;51.186;17.130;2022-09-09T05:31:12;21.80;68.19
70534;SHT31;58088;51.186;17.130;2022-09-09T05:33:43;22.21;67.36
70534;SHT31;58088;51.186;17.130;2022-09-09T05:36:13;22.62;66.25
70534;SHT31;58088;51.186;17.130;2022-09-09T05:38:47;22.99;65.18
70534;SHT31;58088;51.186;17.130;2022-09-09T05:41:15;23.35;64.70
70534;SHT31;58088;51.186;17.130;2022-09-09T05:43:43;23.78;63.88
70534;SHT31;58088;51.186;17.130;2022-09-09T05:46:12;24.14;62.99
70534;SHT31;58088;51.186;17.130;2022-09-09T05:48:51;24.51;62.01
70534;SHT31;58088;51.186;17.130;2022-09-09T05:51:22;24.89;61.22
70534;SHT31;58088;51.186;17.130;2022-09-09T05:53:53;25.29;60.46
70534;SHT31;58088;51.186;17.130;2022-09-09T05:56:22;25.72;59.57
70534;SHT31;58088;51.186;17.130;2022-09-09T05:58:51;26.06;58.76
70534;SHT31;58088;51.186;17.130;2022-09-09T06:01:20;26.33;57.76
70534;SHT31;58088;51.186;17.130;2022-09-09T06:03:52;26.60;56.57
70534;SHT31;58088;51.186;17.130;2022-09-09T06:06:21;26.82;55.88
70534;SHT31;58088;51.186;17.130;2022-09-09T06:08:53;27.03;55.43
70534;SHT31;58088;51.186;17.130;2022-09-09T06:11:25;27.25;54.57
70534;SHT31;58088;51.186;17.130;2022-09-09T06:13:58;27.46;53.99
70534;SHT31;58088;51.186;17.130;2022-09-09T06:16:27;27.66;53.60
70534;SHT31;58088;51.186;17.130;2022-09-09T06:18:55;27.81;53.03
70534;SHT31;58088;51.186;17.130;2022-09-09T06:23:56;27.99;52.52
70534;SHT31;58088;51.186;17.130;2022-09-09T06:26:24;28.03;52.24
70534;SHT31;58088;51.186;17.130;2022-09-09T06:28:55;28.06;52.07
70534;SHT31;58088;51.186;17.130;2022-09-09T06:31:25;28.13;52.06
70534;SHT31;58088;51.186;17.130;2022-09-09T06:33:58;28.29;51.47
70534;SHT31;58088;51.186;17.130;2022-09-09T06:36:26;28.45;51.31
70534;SHT31;58088;51.186;17.130;2022-09-09T06:38:57;28.59;51.17
70534;SHT31;58088;51.186;17.130;2022-09-09T06:41:25;28.64;50.65
70534;SHT31;58088;51.186;17.130;2022-09-09T06:43:55;28.69;50.49
70534;SHT31;58088;51.186;17.130;2022-09-09T06:46:28;28.74;50.31
70534;SHT31;58088;51.186;17.130;2022-09-09T06:48:59;28.61;50.07
70534;SHT31;58088;51.186;17.130;2022-09-09T06:51:29;28.45;50.20
70534;SHT31;58088;51.186;17.130;2022-09-09T06:53:59;28.48;50.30
70534;SHT31;58088;51.186;17.130;2022-09-09T06:56:29;28.55;50.10
70534;SHT31;58088;51.186;17.130;2022-09-09T06:59:03;28.75;50.07
70534;SHT31;58088;51.186;17.130;2022-09-09T07:01:35;28.82;49.77
70534;SHT31;58088;51.186;17.130;2022-09-09T07:04:07;28.73;49.34
70534;SHT31;58088;51.186;17.130;2022-09-09T07:06:37;28.68;49.31
70534;SHT31;58088;51.186;17.130;2022-09-09T07:09:11;28.48;49.24
70534;SHT31;58088;51.186;17.130;2022-09-09T07:11:42;28.43;49.73
70534;SHT31;58088;51.186;17.130;2022-09-09T07:14:14;28.37;49.82
70534;SHT31;58088;51.186;17.130;2022-09-09T07:16:45;28.55;50.08
70534;SHT31;58088;51.186;17.130;2022-09-09T07:19:13;28.70;49.66
70534;SHT31;58088;51.186;17.130;2022-09-09T07:21:40;28.68;49.53
70534;SHT31;58088;51.186;17.130;2022-09-09T07:24:08;28.53;49.72
70534;SHT31;58088;51.186;17.130;2022-09-09T07:26:37;28.26;49.92
70534;SHT31;58088;51.186;17.130;2022-09-09T07:29:06;28.01;49.85
70534;SHT31;58088;51.186;17.130;2022-09-09T07:31:34;27.64;50.28
70534;SHT31;58088;51.186;17.130;2022-09-09T07:34:07;27.44;51.34
70534;SHT31;58088;51.186;17.130;2022-09-09T07:36:34;27.44;51.34
70534;SHT31;58088;51.186;17.130;2022-09-09T07:39:06;27.44;51.37
70534;SHT31;58088;51.186;17.130;2022-09-09T07:41:36;27.44;51.81
70534;SHT31;58088;51.186;17.130;2022-09-09T07:44:08;27.51;51.63
70534;SHT31;58088;51.186;17.130;2022-09-09T07:46:42;27.65;50.89
70534;SHT31;58088;51.186;17.130;2022-09-09T07:49:10;27.83;51.19
70534;SHT31;58088;51.186;17.130;2022-09-09T07:51:39;27.98;51.52
70534;SHT31;58088;51.186;17.130;2022-09-09T07:54:11;27.99;50.94
70534;SHT31;58088;51.186;17.130;2022-09-09T07:56:42;27.84;51.30
70534;SHT31;58088;51.186;17.130;2022-09-09T07:59:09;27.76;50.62
70534;SHT31;58088;51.186;17.130;2022-09-09T08:01:37;27.83;50.38
70534;SHT31;58088;51.186;17.130;2022-09-09T08:04:14;27.79;50.29
70534;SHT31;58088;51.186;17.130;2022-09-09T08:06:45;27.59;50.39
70534;SHT31;58088;51.186;17.130;2022-09-09T08:09:19;27.46;51.05
70534;SHT31;58088;51.186;17.130;2022-09-09T08:11:46;27.46;51.03
70534;SHT31;58088;51.186;17.130;2022-09-09T08:14:14;27.46;51.21
70534;SHT31;58088;51.186;17.130;2022-09-09T08:16:42;27.34;51.74
70534;SHT31;58088;51.186;17.130;2022-09-09T08:19:14;27.13;51.35
70534;SHT31;58088;51.186;17.130;2022-09-09T08:21:42;26.91;51.92
70534;SHT31;58088;51.186;17.130;2022-09-09T08:24:11;26.86;52.31
70534;SHT31;58088;51.186;17.130;2022-09-09T08:26:43;26.89;52.06
70534;SHT31;58088;51.186;17.130;2022-09-09T08:29:14;26.94;51.91
70534;SHT31;58088;51.186;17.130;2022-09-09T08:31:45;26.95;50.81
70534;SHT31;58088;51.186;17.130;2022-09-09T08:34:21;26.92;50.25
70534;SHT31;58088;51.186;17.130;2022-09-09T08:36:50;26.82;50.00
70534;SHT31;58088;51.186;17.130;2022-09-09T08:39:19;26.81;49.85
70534;SHT31;58088;51.186;17.130;2022-09-09T08:42:05;26.78;50.45
70534;SHT31;58088;51.186;17.130;2022-09-09T08:48:03;26.67;49.92
70534;SHT31;58088;51.186;17.130;2022-09-09T08:50:49;26.73;49.59
70534;SHT31;58088;51.186;17.130;2022-09-09T08:53:28;26.62;48.96
70534;SHT31;58088;51.186;17.130;2022-09-09T08:56:14;26.45;50.14
70534;SHT31;58088;51.186;17.130;2022-09-09T08:58:51;26.34;50.20
70534;SHT31;58088;51.186;17.130;2022-09-09T09:13:16;26.14;50.50
70534;SHT31;58088;51.186;17.130;2022-09-09T09:15:58;26.23;50.55
70534;SHT31;58088;51.186;17.130;2022-09-09T09:18:38;26.40;50.59
70534;SHT31;58088;51.186;17.130;2022-09-09T09:21:07;26.53;49.92
70534;SHT31;58088;51.186;17.130;2022-09-09T09:24:03;26.50;49.79
70534;SHT31;58088;51.186;17.130;2022-09-09T09:26:45;26.47;50.56
70534;SHT31;58088;51.186;17.130;2022-09-09T09:29:13;26.45;49.87
70534;SHT31;58088;51.186;17.130;2022-09-09T09:31:47;26.43;49.84
70534;SHT31;58088;51.186;17.130;2022-09-09T09:34:21;26.51;50.01
70534;SHT31;58088;51.186;17.130;2022-09-09T09:36:53;26.64;50.42
70534;SHT31;58088;51.186;17.130;2022-09-09T09:39:23;26.75;50.91
70534;SHT31;58088;51.186;17.130;2022-09-09T09:41:57;26.76;49.79
70534;SHT31;58088;51.186;17.130;2022-09-09T09:44:31;26.67;49.61
70534;SHT31;58088;51.186;17.130;2022-09-09T09:47:07;26.61;50.15
70534;SHT31;58088;51.186;17.130;2022-09-09T09:49:39;26.51;50.72
70534;SHT31;58088;51.186;17.130;2022-09-09T09:52:22;26.53;50.88
70534;SHT31;58088;51.186;17.130;2022-09-09T09:54:52;26.64;50.85
70534;SHT31;58088;51.186;17.130;2022-09-09T09:57:22;26.72;50.26
70534;SHT31;58088;51.186;17.130;2022-09-09T10:02:43;26.80;50.58
70534;SHT31;58088;51.186;17.130;2022-09-09T10:05:17;26.90;49.90
70534;SHT31;58088;51.186;17.130;2022-09-09T10:08:05;27.02;49.50
70534;SHT31;58088;51.186;17.130;2022-09-09T10:14:17;27.02;49.37
70534;SHT31;58088;51.186;17.130;2022-09-09T10:19:34;27.03;49.24
70534;SHT31;58088;51.186;17.130;2022-09-09T10:25:00;26.90;49.55
70534;SHT31;58088;51.186;17.130;2022-09-09T10:28:22;26.78;49.19
70534;SHT31;58088;51.186;17.130;2022-09-09T10:34:00;26.69;48.61
70534;SHT31;58088;51.186;17.130;2022-09-09T10:36:43;26.77;48.89
70534;SHT31;58088;51.186;17.130;2022-09-09T10:42:07;26.88;48.09
70534;SHT31;58088;51.186;17.130;2022-09-09T10:47:46;26.89;46.92
70534;SHT31;58088;51.186;17.130;2022-09-09T10:50:24;26.91;46.66
70534;SHT31;58088;51.186;17.130;2022-09-09T10:56:09;26.83;46.71
70534;SHT31;58088;51.186;17.130;2022-09-09T10:58:42;26.76;46.87
70534;SHT31;58088;51.186;17.130;2022-09-09T11:01:30;26.67;46.82
70534;SHT31;58088;51.186;17.130;2022-09-09T11:04:12;26.77;47.35
70534;SHT31;58088;51.186;17.130;2022-09-09T11:07:06;26.85;47.75
70534;SHT31;58088;51.186;17.130;2022-09-09T11:09:48;26.87;47.90
70534;SHT31;58088;51.186;17.130;2022-09-09T11:12:24;26.95;46.98
70534;SHT31;58088;51.186;17.130;2022-09-09T11:14:59;27.02;46.12
70534;SHT31;58088;51.186;17.130;2022-09-09T11:17:56;27.09;45.31
70534;SHT31;58088;51.186;17.130;2022-09-09T11:20:29;27.08;45.96
70534;SHT31;58088;51.186;17.130;2022-09-09T11:23:03;27.16;46.51
70534;SHT31;58088;51.186;17.130;2022-09-09T11:25:36;27.20;45.26
70534;SHT31;58088;51.186;17.130;2022-09-09T11:28:35;27.24;46.06
70534;SHT31;58088;51.186;17.130;2022-09-09T11:34:12;27.29;46.09
70534;SHT31;58088;51.186;17.130;2022-09-09T11:43:03;27.23;45.37
70534;SHT31;58088;51.186;17.130;2022-09-09T11:45:41;27.10;45.79
70534;SHT31;58088;51.186;17.130;2022-09-09T11:48:22;26.99;46.13
70534;SHT31;58088;51.186;17.130;2022-09-09T11:51:09;27.01;46.73
70534;SHT31;58088;51.186;17.130;2022-09-09T11:53:51;27.11;46.73
70534;SHT31;58088;51.186;17.130;2022-09-09T11:56:31;27.25;46.94
70534;SHT31;58088;51.186;17.130;2022-09-09T11:59:28;27.29;45.61
70534;SHT31;58088;51.186;17.130;2022-09-09T12:01:58;27.27;44.70
70534;SHT31;58088;51.186;17.130;2022-09-09T12:12:50;27.01;44.31
70534;SHT31;58088;51.186;17.130;2022-09-09T12:15:17;27.01;44.30
70534;SHT31;58088;51.186;17.130;2022-09-09T12:17:55;26.95;45.45
70534;SHT31;58088;51.186;17.130;2022-09-09T12:20:34;26.83;46.21
70534;SHT31;58088;51.186;17.130;2022-09-09T12:29:01;26.58;49.46
70534;SHT31;58088;51.186;17.130;2022-09-09T12:32:15;26.53;48.90
70534;SHT31;58088;51.186;17.130;2022-09-09T12:34:54;26.64;47.82
70534;SHT31;58088;51.186;17.130;2022-09-09T12:40:18;26.77;46.75
70534;SHT31;58088;51.186;17.130;2022-09-09T12:42:47;26.79;46.85
70534;SHT31;58088;51.186;17.130;2022-09-09T12:45:23;26.79;46.81
70534;SHT31;58088;51.186;17.130;2022-09-09T12:47:57;26.79;46.14
70534;SHT31;58088;51.186;17.130;2022-09-09T12:50:29;26.80;45.93
70534;SHT31;58088;51.186;17.130;2022-09-09T12:56:06;26.78;44.97
70534;SHT31;58088;51.186;17.130;2022-09-09T12:58:36;26.73;46.41
70534;SHT31;58088;51.186;17.130;2022-09-09T13:01:05;26.70;46.54
70534;SHT31;58088;51.186;17.130;2022-09-09T13:04:15;26.72;46.93
70534;SHT31;58088;51.186;17.130;2022-09-09T13:06:49;26.73;47.11
70534;SHT31;58088;51.186;17.130;2022-09-09T13:09:17;26.77;47.70
70534;SHT31;58088;51.186;17.130;2022-09-09T13:11:46;26.78;47.30
70534;SHT31;58088;51.186;17.130;2022-09-09T13:14:28;26.71;46.43
70534;SHT31;58088;51.186;17.130;2022-09-09T13:17:01;26.66;46.82
70534;SHT31;58088;51.186;17.130;2022-09-09T13:19:39;26.58;45.96
70534;SHT31;58088;51.186;17.130;2022-09-09T13:22:18;26.66;46.33
70534;SHT31;58088;51.186;17.130;2022-09-09T13:25:00;26.71;46.02
70534;SHT31;58088;51.186;17.130;2022-09-09T13:33:20;26.80;46.16
70534;SHT31;58088;51.186;17.130;2022-09-09T13:35:59;26.75;46.77
70534;SHT31;58088;51.186;17.130;2022-09-09T13:38:30;26.76;46.46
70534;SHT31;58088;51.186;17.130;2022-09-09T13:41:04;26.74;46.24
70534;SHT31;58088;51.186;17.130;2022-09-09T13:43:42;26.74;46.78
70534;SHT31;58088;51.186;17.130;2022-09-09T13:51:40;26.31;48.00
70534;SHT31;58088;51.186;17.130;2022-09-09T13:54:13;26.27;47.11
70534;SHT31;58088;51.186;17.130;2022-09-09T13:56:41;26.25;46.98
70534;SHT31;58088;51.186;17.130;2022-09-09T13:59:12;26.25;46.98
70534;SHT31;58088;51.186;17.130;2022-09-09T14:01:42;26.24;46.49
70534;SHT31;58088;51.186;17.130;2022-09-09T14:04:09;26.25;46.11
70534;SHT31;58088;51.186;17.130;2022-09-09T14:06:36;26.22;46.36
70534;SHT31;58088;51.186;17.130;2022-09-09T14:09:05;26.17;46.23
70534;SHT31;58088;51.186;17.130;2022-09-09T14:11:33;26.17;46.64
70534;SHT31;58088;51.186;17.130;2022-09-09T14:13:59;26.10;46.34
70534;SHT31;58088;51.186;17.130;2022-09-09T14:16:26;26.04;46.39
70534;SHT31;58088;51.186;17.130;2022-09-09T14:18:53;26.00;47.00
70534;SHT31;58088;51.186;17.130;2022-09-09T14:21:21;25.94;46.48
70534;SHT31;58088;51.186;17.130;2022-09-09T14:23:48;25.88;46.25
70534;SHT31;58088;51.186;17.130;2022-09-09T14:26:15;25.83;47.36
70534;SHT31;58088;51.186;17.130;2022-09-09T14:28:41;25.77;48.16
70534;SHT31;58088;51.186;17.130;2022-09-09T14:31:08;25.75;47.22
70534;SHT31;58088;51.186;17.130;2022-09-09T14:33:36;25.73;47.17
70534;SHT31;58088;51.186;17.130;2022-09-09T14:36:02;25.71;47.18
70534;SHT31;58088;51.186;17.130;2022-09-09T14:38:30;25.71;47.71
70534;SHT31;58088;51.186;17.130;2022-09-09T14:41:05;25.72;47.50
70534;SHT31;58088;51.186;17.130;2022-09-09T14:43:33;25.68;47.19
70534;SHT31;58088;51.186;17.130;2022-09-09T14:46:09;25.67;47.16
70534;SHT31;58088;51.186;17.130;2022-09-09T14:48:38;25.63;47.22
70534;SHT31;58088;51.186;17.130;2022-09-09T14:53:43;25.65;46.80
70534;SHT31;58088;51.186;17.130;2022-09-09T14:56:14;25.69;46.96
70534;SHT31;58088;51.186;17.130;2022-09-09T14:58:43;25.72;47.61
70534;SHT31;58088;51.186;17.130;2022-09-09T15:01:11;25.71;48.20
70534;SHT31;58088;51.186;17.130;2022-09-09T15:03:41;25.72;48.35
70534;SHT31;58088;51.186;17.130;2022-09-09T15:06:13;25.73;49.02
70534;SHT31;58088;51.186;17.130;2022-09-09T15:08:41;25.65;49.05
70534;SHT31;58088;51.186;17.130;2022-09-09T15:11:11;25.58;48.09
70534;SHT31;58088;51.186;17.130;2022-09-09T15:13:39;25.54;48.32
70534;SHT31;58088;51.186;17.130;2022-09-09T15:16:10;25.48;48.57
70534;SHT31;58088;51.186;17.130;2022-09-09T15:18:41;25.39;48.74
70534;SHT31;58088;51.186;17.130;2022-09-09T15:21:16;25.29;48.35
70534;SHT31;58088;51.186;17.130;2022-09-09T15:23:47;25.20;48.69
70534;SHT31;58088;51.186;17.130;2022-09-09T15:26:14;25.17;48.99
70534;SHT31;58088;51.186;17.130;2022-09-09T15:28:42;25.10;48.96
70534;SHT31;58088;51.186;17.130;2022-09-09T15:31:12;25.03;49.08
70534;SHT31;58088;51.186;17.130;2022-09-09T15:33:40;24.97;49.12
70534;SHT31;58088;51.186;17.130;2022-09-09T15:36:13;24.93;49.30
70534;SHT31;58088;51.186;17.130;2022-09-09T15:38:47;24.90;49.91
70534;SHT31;58088;51.186;17.130;2022-09-09T15:41:14;24.86;50.31
70534;SHT31;58088;51.186;17.130;2022-09-09T15:43:43;24.82;50.32
70534;SHT31;58088;51.186;17.130;2022-09-09T15:46:31;24.81;50.74
70534;SHT31;58088;51.186;17.130;2022-09-09T15:49:05;24.77;50.27
70534;SHT31;58088;51.186;17.130;2022-09-09T15:51:37;24.73;49.87
70534;SHT31;58088;51.186;17.130;2022-09-09T15:54:06;24.67;50.10
70534;SHT31;58088;51.186;17.130;2022-09-09T15:56:32;24.63;50.50
70534;SHT31;58088;51.186;17.130;2022-09-09T15:59:00;24.59;50.76
70534;SHT31;58088;51.186;17.130;2022-09-09T16:01:28;24.53;50.79
70534;SHT31;58088;51.186;17.130;2022-09-09T16:03:56;24.51;51.26
70534;SHT31;58088;51.186;17.130;2022-09-09T16:06:25;24.47;51.65
70534;SHT31;58088;51.186;17.130;2022-09-09T16:08:55;24.44;51.70
70534;SHT31;58088;51.186;17.130;2022-09-09T16:11:25;24.43;51.64
70534;SHT31;58088;51.186;17.130;2022-09-09T16:13:56;24.39;51.89
70534;SHT31;58088;51.186;17.130;2022-09-09T16:16:23;24.35;52.33
70534;SHT31;58088;51.186;17.130;2022-09-09T16:18:55;24.32;52.76
70534;SHT31;58088;51.186;17.130;2022-09-09T16:21:25;24.29;53.00
70534;SHT31;58088;51.186;17.130;2022-09-09T16:23:55;24.28;53.87
70534;SHT31;58088;51.186;17.130;2022-09-09T16:26:25;24.27;54.42
70534;SHT31;58088;51.186;17.130;2022-09-09T16:28:53;24.24;54.78
70534;SHT31;58088;51.186;17.130;2022-09-09T16:31:20;24.21;55.54
70534;SHT31;58088;51.186;17.130;2022-09-09T16:33:49;24.14;55.77
70534;SHT31;58088;51.186;17.130;2022-09-09T16:36:18;24.08;56.31
70534;SHT31;58088;51.186;17.130;2022-09-09T16:38:45;23.96;56.90
70534;SHT31;58088;51.186;17.130;2022-09-09T16:41:12;23.85;56.59
70534;SHT31;58088;51.186;17.130;2022-09-09T16:43:40;23.79;56.04
70534;SHT31;58088;51.186;17.130;2022-09-09T16:46:11;23.74;55.76
70534;SHT31;58088;51.186;17.130;2022-09-09T16:48:44;23.70;56.78
70534;SHT31;58088;51.186;17.130;2022-09-09T16:51:16;23.65;57.16
70534;SHT31;58088;51.186;17.130;2022-09-09T16:53:49;23.56;57.69
70534;SHT31;58088;51.186;17.130;2022-09-09T16:56:18;23.50;57.77
70534;SHT31;58088;51.186;17.130;2022-09-09T16:58:56;23.45;57.79
70534;SHT31;58088;51.186;17.130;2022-09-09T17:01:27;23.34;58.21
70534;SHT31;58088;51.186;17.130;2022-09-09T17:03:57;23.26;58.69
70534;SHT31;58088;51.186;17.130;2022-09-09T17:06:29;23.20;59.18
70534;SHT31;58088;51.186;17.130;2022-09-09T17:09:00;23.15;59.27
70534;SHT31;58088;51.186;17.130;2022-09-09T17:11:30;23.07;59.50
70534;SHT31;58088;51.186;17.130;2022-09-09T17:13:56;22.96;60.04
70534;SHT31;58088;51.186;17.130;2022-09-09T17:16:24;22.88;60.54
70534;SHT31;58088;51.186;17.130;2022-09-09T17:18:54;22.84;60.87
70534;SHT31;58088;51.186;17.130;2022-09-09T17:21:25;22.78;61.38
70534;SHT31;58088;51.186;17.130;2022-09-09T17:23:53;22.71;61.64
70534;SHT31;58088;51.186;17.130;2022-09-09T17:26:21;22.63;62.10
70534;SHT31;58088;51.186;17.130;2022-09-09T17:28:52;22.58;62.24
70534;SHT31;58088;51.186;17.130;2022-09-09T17:31:21;22.50;62.51
70534;SHT31;58088;51.186;17.130;2022-09-09T17:33:48;22.44;62.60
70534;SHT31;58088;51.186;17.130;2022-09-09T17:36:19;22.42;62.33
70534;SHT31;58088;51.186;17.130;2022-09-09T17:38:52;22.40;62.87
70534;SHT31;58088;51.186;17.130;2022-09-09T17:41:20;22.38;62.95
70534;SHT31;58088;51.186;17.130;2022-09-09T17:43:56;22.33;63.08
70534;SHT31;58088;51.186;17.130;2022-09-09T17:46:24;22.28;63.08
70534;SHT31;58088;51.186;17.130;2022-09-09T17:49:13;22.28;63.63
70534;SHT31;58088;51.186;17.130;2022-09-09T17:51:43;22.22;64.17
70534;SHT31;58088;51.186;17.130;2022-09-09T17:54:15;22.21;64.16
70534;SHT31;58088;51.186;17.130;2022-09-09T17:56:44;22.19;64.28
70534;SHT31;58088;51.186;17.130;2022-09-09T17:59:13;22.17;64.19
70534;SHT31;58088;51.186;17.130;2022-09-09T18:01:43;22.14;64.32